Zed — V7KU2 — position and weather

sailwx.info

Track history (hours):
 
Tides and Currents Weather Stations Pressure Air Temp Water Temp Dewpoint Dewpoint Depression Visibility Wind Speed Wind Dir Waves Ship Positions

Zed

Last reported at 2016-Sep-10 23:24 UTC. Time now 2016-Sep-25 08:55 UTC.
Position N 37°15' E 025°52'.
Warning: this ship's position is 14 days out of date.

Length 225 m; draft 12.8 m.

Type: Cargo ship. MMSI: 538007106.

Date/timePositionNaut miles runAvg speedWind from/ knotsBaromVisibWave heightAir tempDewpointWater temp
2016-Sep-10 23:24N 37°15' E 025°52'1112.0
2016-Sep-10 22:32N 37°25' E 025°46'1212.4
2016-Sep-10 21:33N 37°36' E 025°42'1212.0
2016-Sep-10 20:33N 37°47' E 025°37'240 9.1
2016-Sep-09 18:21N 40°55' E 028°51'7 7.2
2016-Sep-09 17:21N 40°59' E 028°59'305 9.2
2016-Sep-08 08:08N 45°49' E 031°05'911.8
2016-Sep-08 07:23N 45°58' E 031°05'911.3
2016-Sep-08 06:33N 46°08' E 031°04'1111.1
2016-Sep-08 05:33N 46°16' E 030°54'1111.4
2016-Sep-08 04:34N 46°28' E 030°55'9 8.6
2016-Sep-08 03:34N 46°34' E 031°04'1 0.9
2016-Sep-08 02:33N 46°34' E 031°05'0 0.0
2016-Sep-08 01:33N 46°34' E 031°05'0 0.0
2016-Sep-08 00:30N 46°34' E 031°05'0 0.0
2016-Sep-07 22:30N 46°34' E 031°05'0 0.0
2016-Sep-07 21:18N 46°34' E 031°05'0 0.0
2016-Sep-07 20:30N 46°34' E 031°05'0 0.0
2016-Sep-07 19:30N 46°34' E 031°05'0 0.0
2016-Sep-07 10:33N 46°34' E 031°05'0 0.0
2016-Sep-07 02:06N 46°34' E 031°05'0 0.0
2016-Sep-07 01:33N 46°34' E 031°05'0 0.0
2016-Sep-07 00:33N 46°34' E 031°05'0 0.0
2016-Sep-06 23:33N 46°34' E 031°05'1 0.1
2016-Sep-06 18:04N 46°34' E 031°04'3 5.3
2016-Sep-06 17:33N 46°34' E 031°01'4 0.4
2016-Sep-06 06:24N 46°38' E 031°01'0 0.0
2016-Sep-06 04:33N 46°38' E 031°01'0 0.0
2016-Sep-06 03:33N 46°38' E 031°01'0 0.0
2016-Sep-06 02:33N 46°38' E 031°01'0 0.0
2016-Sep-06 01:21N 46°38' E 031°01'0 0.0
2016-Sep-06 00:33N 46°38' E 031°01'0 0.0
2016-Sep-05 23:33N 46°38' E 031°01'0 0.0
2016-Sep-05 22:30N 46°38' E 031°01'0 0.0
2016-Sep-05 21:18N 46°38' E 031°01'0 0.0
2016-Sep-05 20:09N 46°38' E 031°01'0 0.0
2016-Sep-05 19:30N 46°38' E 031°01'0 0.0
2016-Sep-05 18:33N 46°38' E 031°01'0 0.0
2016-Sep-05 17:33N 46°38' E 031°01'0 0.0
2016-Sep-05 16:33N 46°38' E 031°01'0 0.0
2016-Sep-05 04:33N 46°38' E 031°01'0 0.0
2016-Sep-05 03:33N 46°38' E 031°01'0 0.0
2016-Sep-05 02:33N 46°38' E 031°01'0 0.0
2016-Sep-05 01:33N 46°38' E 031°01'0 0.0
2016-Sep-05 00:24N 46°38' E 031°01'0 0.0
2016-Sep-04 22:12N 46°38' E 031°01'0 0.0
2016-Sep-04 18:24N 46°38' E 031°01'0 0.0
2016-Sep-03 19:27N 46°38' E 031°01'0 0.0
2016-Sep-03 17:33N 46°38' E 031°01'0 0.0
2016-Sep-02 23:09N 46°38' E 031°01'0 0.0
2016-Sep-02 22:30N 46°38' E 031°01'0 0.0
2016-Sep-02 21:30N 46°38' E 031°01'0 0.0
2016-Sep-02 20:33N 46°38' E 031°01'0 0.0
2016-Sep-02 11:33N 46°38' E 031°01'0 0.0
2016-Sep-02 09:21N 46°38' E 031°01'0 0.0
2016-Sep-02 08:21N 46°38' E 031°01'0 0.0
2016-Sep-02 04:33N 46°38' E 031°01'0 0.0
2016-Sep-02 03:33N 46°38' E 031°01'0 0.0
2016-Sep-02 02:15N 46°38' E 031°01'0 0.0
2016-Sep-02 01:33N 46°38' E 031°01'0 0.0
2016-Sep-02 00:33N 46°38' E 031°01'0 0.0
2016-Sep-01 21:33N 46°38' E 031°01'0 0.0
2016-Sep-01 20:24N 46°38' E 031°01'0 0.0
2016-Sep-01 19:03N 46°38' E 031°01'0 0.0
2016-Sep-01 18:27N 46°38' E 031°01'0 0.0
2016-Sep-01 17:21N 46°38' E 031°01'0 0.0
2016-Sep-01 16:27N 46°38' E 031°01'0 0.0
2016-Sep-01 15:27N 46°38' E 031°01'0 0.0
2016-Sep-01 14:33N 46°38' E 031°01'1 0.6
2016-Sep-01 13:33N 46°39' E 031°01'5 5.1
2016-Sep-01 12:33N 46°34' E 031°01'3 2.8
2016-Sep-01 11:31N 46°34' E 031°05'0 0.0
2016-Sep-01 10:31N 46°34' E 031°05'0 0.0
2016-Sep-01 09:25N 46°34' E 031°05'0 0.0
2016-Sep-01 08:28N 46°34' E 031°05'0 0.0
2016-Sep-01 07:25N 46°34' E 031°05'0 0.0
2016-Sep-01 06:31N 46°34' E 031°05'0 0.0
2016-Sep-01 05:31N 46°34' E 031°05'0 0.0
2016-Sep-01 04:25N 46°34' E 031°05'0 0.0
2016-Sep-01 03:31N 46°34' E 031°05'0 0.0
2016-Sep-01 02:07N 46°34' E 031°05'0 0.0
2016-Sep-01 01:31N 46°34' E 031°05'0 0.0
2016-Sep-01 00:31N 46°34' E 031°05'0 0.0
2016-Aug-31 23:31N 46°34' E 031°05'  
Track history (hours):
 
Tides and Currents Weather Stations Pressure Air Temp Water Temp Dewpoint Dewpoint Depression Visibility Wind Speed Wind Dir Waves Ship Positions

Zed

Last reported at 2016-Sep-10 23:24 UTC. Time now 2016-Sep-25 08:55 UTC.
Position N 37°15' E 025°52'.
Warning: this ship's position is 14 days out of date.

Length 225 m; draft 12.8 m.

Type: Cargo ship. MMSI: 538007106.

Date/timePositionNaut miles runAvg speedWind from/ knotsBaromVisibWave heightAir tempDewpointWater temp
2016-Sep-10 23:24N 37°15' E 025°52'1112.0
2016-Sep-10 22:32N 37°25' E 025°46'1212.4
2016-Sep-10 21:33N 37°36' E 025°42'1212.0
2016-Sep-10 20:33N 37°47' E 025°37'240 9.1
2016-Sep-09 18:21N 40°55' E 028°51'7 7.2
2016-Sep-09 17:21N 40°59' E 028°59'305 9.2
2016-Sep-08 08:08N 45°49' E 031°05'911.8
2016-Sep-08 07:23N 45°58' E 031°05'911.3
2016-Sep-08 06:33N 46°08' E 031°04'1111.1
2016-Sep-08 05:33N 46°16' E 030°54'1111.4
2016-Sep-08 04:34N 46°28' E 030°55'9 8.6
2016-Sep-08 03:34N 46°34' E 031°04'1 0.9
2016-Sep-08 02:33N 46°34' E 031°05'0 0.0
2016-Sep-08 01:33N 46°34' E 031°05'0 0.0
2016-Sep-08 00:30N 46°34' E 031°05'0 0.0
2016-Sep-07 22:30N 46°34' E 031°05'0 0.0
2016-Sep-07 21:18N 46°34' E 031°05'0 0.0
2016-Sep-07 20:30N 46°34' E 031°05'0 0.0
2016-Sep-07 19:30N 46°34' E 031°05'0 0.0
2016-Sep-07 10:33N 46°34' E 031°05'0 0.0
2016-Sep-07 02:06N 46°34' E 031°05'0 0.0
2016-Sep-07 01:33N 46°34' E 031°05'0 0.0
2016-Sep-07 00:33N 46°34' E 031°05'0 0.0
2016-Sep-06 23:33N 46°34' E 031°05'1 0.1
2016-Sep-06 18:04N 46°34' E 031°04'3 5.3
2016-Sep-06 17:33N 46°34' E 031°01'4 0.4
2016-Sep-06 06:24N 46°38' E 031°01'0 0.0
2016-Sep-06 04:33N 46°38' E 031°01'0 0.0
2016-Sep-06 03:33N 46°38' E 031°01'0 0.0
2016-Sep-06 02:33N 46°38' E 031°01'0 0.0
2016-Sep-06 01:21N 46°38' E 031°01'0 0.0
2016-Sep-06 00:33N 46°38' E 031°01'0 0.0
2016-Sep-05 23:33N 46°38' E 031°01'0 0.0
2016-Sep-05 22:30N 46°38' E 031°01'0 0.0
2016-Sep-05 21:18N 46°38' E 031°01'0 0.0
2016-Sep-05 20:09N 46°38' E 031°01'0 0.0
2016-Sep-05 19:30N 46°38' E 031°01'0 0.0
2016-Sep-05 18:33N 46°38' E 031°01'0 0.0
2016-Sep-05 17:33N 46°38' E 031°01'0 0.0
2016-Sep-05 16:33N 46°38' E 031°01'0 0.0
2016-Sep-05 04:33N 46°38' E 031°01'0 0.0
2016-Sep-05 03:33N 46°38' E 031°01'0 0.0
2016-Sep-05 02:33N 46°38' E 031°01'0 0.0
2016-Sep-05 01:33N 46°38' E 031°01'0 0.0
2016-Sep-05 00:24N 46°38' E 031°01'0 0.0
2016-Sep-04 22:12N 46°38' E 031°01'0 0.0
2016-Sep-04 18:24N 46°38' E 031°01'0 0.0
2016-Sep-03 19:27N 46°38' E 031°01'0 0.0
2016-Sep-03 17:33N 46°38' E 031°01'0 0.0
2016-Sep-02 23:09N 46°38' E 031°01'0 0.0
2016-Sep-02 22:30N 46°38' E 031°01'0 0.0
2016-Sep-02 21:30N 46°38' E 031°01'0 0.0
2016-Sep-02 20:33N 46°38' E 031°01'0 0.0
2016-Sep-02 11:33N 46°38' E 031°01'0 0.0
2016-Sep-02 09:21N 46°38' E 031°01'0 0.0
2016-Sep-02 08:21N 46°38' E 031°01'0 0.0
2016-Sep-02 04:33N 46°38' E 031°01'0 0.0
2016-Sep-02 03:33N 46°38' E 031°01'0 0.0
2016-Sep-02 02:15N 46°38' E 031°01'0 0.0
2016-Sep-02 01:33N 46°38' E 031°01'0 0.0
2016-Sep-02 00:33N 46°38' E 031°01'0 0.0
2016-Sep-01 21:33N 46°38' E 031°01'0 0.0
2016-Sep-01 20:24N 46°38' E 031°01'0 0.0
2016-Sep-01 19:03N 46°38' E 031°01'0 0.0
2016-Sep-01 18:27N 46°38' E 031°01'0 0.0
2016-Sep-01 17:21N 46°38' E 031°01'0 0.0
2016-Sep-01 16:27N 46°38' E 031°01'0 0.0
2016-Sep-01 15:27N 46°38' E 031°01'0 0.0
2016-Sep-01 14:33N 46°38' E 031°01'1 0.6
2016-Sep-01 13:33N 46°39' E 031°01'5 5.1
2016-Sep-01 12:33N 46°34' E 031°01'3 2.8
2016-Sep-01 11:31N 46°34' E 031°05'0 0.0
2016-Sep-01 10:31N 46°34' E 031°05'0 0.0
2016-Sep-01 09:25N 46°34' E 031°05'0 0.0
2016-Sep-01 08:28N 46°34' E 031°05'0 0.0
2016-Sep-01 07:25N 46°34' E 031°05'0 0.0
2016-Sep-01 06:31N 46°34' E 031°05'0 0.0
2016-Sep-01 05:31N 46°34' E 031°05'0 0.0
2016-Sep-01 04:25N 46°34' E 031°05'0 0.0
2016-Sep-01 03:31N 46°34' E 031°05'0 0.0
2016-Sep-01 02:07N 46°34' E 031°05'0 0.0
2016-Sep-01 01:31N 46°34' E 031°05'0 0.0
2016-Sep-01 00:31N 46°34' E 031°05'0 0.0
2016-Aug-31 23:31N 46°34' E 031°05'  

Dump ship's entire track history